Terminal Aerodrome Forecast
Issued by NWS Memphis, TN

Home | Current Version | Previous Version | Text Only | Print | Product List | Glossary On
Versions: 1 2 3 4 5 6 7 8 9 10 11 12 13
000
FTUS44 KMEG 240531
TAFJBR
TAF
KJBR 240531Z 2406/2506 31005KT P6SM SCT007 OVC025
      TEMPO 2406/2409 6SM BR BKN007
     FM240900 31005KT 5SM BR BKN005 OVC012
     FM241500 33007KT P6SM BKN012 OVC025
     FM241700 33009KT P6SM BKN025 OVC045
     FM242300 34005KT P6SM SCT025 BKN045=

USA.gov is the U.S. government's official web portal to all federal, state and local government web resources and services.